• Join FlightAware (Why Join?)
  • Login
  • US Flag 
09:02AM EDT


 

Airport Tracker/Info


-or-


 

Live Flight TrackerFlight Track Log ✈ SWA127 ✈ 31-Jan-2014 ✈ KSDF - KBWI

Flight Track Log - Related Links

Times and Time Zones

All times are in EST time to prevent confusion due to time zone crossing. See the SWA127 flight status page for this flight to view local times or setup timezone preferences in your user account.

Time Position Orientation Groundspeed Altitude Reporting Facility
EST Latitude Longitude Course Direction KTS MPH feet Rate Location/Type
07:59AM 38.1333 -85.7333 157° South 168 193 2,500  Level Louisville TRACON
08:00AM 38.0814 -85.7053 157° South 241 277 5,400 3,000 Climbing Indianapolis Center
08:01AM 38.0756 -85.6042 94° East 295 339 9,100 3,660 Climbing Indianapolis Center
08:02AM 38.0728 -85.4850 92° East 338 389 13,000 3,600 Climbing Indianapolis Center
08:03AM 38.0728 -85.3489 90° East 380 437 16,600 3,300 Climbing Indianapolis Center
08:04AM 38.0572 -85.1844 97° East 422 486 19,800 3,060 Climbing Indianapolis Center
08:05AM 38.0372 -85.0292 99° East 445 512 22,900 2,280 Climbing Indianapolis Center
08:06AM 38.0167 -84.8567 99° East 494 568 24,500 2,280 Climbing Indianapolis Center
08:07AM 38.0192 -84.6811 89° East 499 574 27,600 2,580 Climbing Indianapolis Center
08:08AM 38.0411 -84.5000 81° East 516 594 29,900 2,460 Climbing Indianapolis Center
08:09AM 38.0683 -84.2822 81° East 529 609 32,700 2,520 Climbing Indianapolis Center
08:10AM 38.0919 -84.0969 81° East 532 612 35,100 2,040 Climbing Indianapolis Center
08:11AM 38.1136 -83.9117 81° East 529 609 37,000 900 Climbing Indianapolis Center
08:12AM 38.1361 -83.7239 81° East 532 612 37,000  Level Indianapolis Center
08:13AM 38.1597 -83.5339 81° East 538 619 37,000  Level Indianapolis Center
08:15AM 38.1797 -83.3422 82° East 543 625 37,000  Level Indianapolis Center
08:16AM 38.1883 -83.1483 87° East 544 626 37,000  Level Indianapolis Center
08:17AM 38.1978 -82.9550 86° East 544 626 37,000  Level Indianapolis Center
08:18AM 38.2072 -82.7625 86° East 544 626 37,000  Level Indianapolis Center
08:19AM 38.2169 -82.5392 87° East 542 624 37,000  Level Indianapolis Center
08:20AM 38.2242 -82.3783 87° East 544 626 37,000  Level Indianapolis Center
08:21AM 38.2342 -82.1486 87° East 545 627 37,000  Level Indianapolis Center
08:22AM 38.2422 -81.9594 87° East 542 624 37,000  Level Indianapolis Center
08:23AM 38.2508 -81.7706 87° East 540 621 37,000  Level Indianapolis Center
08:24AM 38.2578 -81.5811 87° East 541 623 37,000  Level Indianapolis Center
08:25AM 38.2639 -81.3928 88° East 540 621 37,000  Level Indianapolis Center
08:26AM 38.2703 -81.2039 87° East 541 623 37,000  Level Indianapolis Center
08:27AM 38.2767 -81.0150 87° East 538 619 37,000  Level Indianapolis Center
08:28AM 38.2836 -80.7889 88° East 537 618 37,000  Level Indianapolis Center
08:29AM 38.2900 -80.6011 87° East 535 616 37,000  Level Indianapolis Center
08:30AM 38.2725 -80.4156 97° East 533 613 37,000  Level Indianapolis Center
08:31AM 38.2239 -80.2439 110° East 521 600 37,000  Level Indianapolis Center
08:32AM 38.1856 -80.0714 106° East 512 589 37,000 -420 Level Indianapolis Center
08:33AM 38.2142 -79.8922 78° East 523 602 36,200 -840 Descending Indianapolis Center
08:34AM 38.2533 -79.7178 74° East 524 603 35,300 -1,080 Descending Indianapolis Center
08:35AM 38.2986 -79.5056 75° East 528 608 34,100 -1,080 Descending Indianapolis Center
08:36AM 38.3364 -79.3289 75° East 527 606 33,200 -540 Descending Indianapolis Center
08:37AM 38.3839 -79.1278 73° East 531 611 33,000 -480 Descending Washington Center
08:38AM 38.4225 -78.9469 75° East 531 611 32,200 -1,020 Descending Washington Center
08:39AM 38.4636 -78.7419 76° East 531 611 31,100 -1,620 Descending Washington Center
08:40AM 38.4992 -78.5656 76° East 526 605 29,100 -2,160 Descending Washington Center
08:41AM 38.5347 -78.3944 75° East 515 593 26,800 -2,460 Descending Washington Center
08:42AM 38.5678 -78.2258 76° East 502 578 24,300 -2,220 Descending Washington Center
08:43AM 38.5956 -78.0914 75° East 492 566 22,400 -2,460 Descending Washington Center
08:44AM 38.6350 -77.8958 75° East 479 551 19,400 -1,740 Descending Washington Center
08:45AM 38.6483 -77.7394 84° East 461 531 18,900 -420 Descending Washington Center
08:46AM 38.6569 -77.5989 85° East 429 494 18,600 -900 Descending Washington Center
08:47AM 38.6631 -77.4714 86° East 411 473 17,200 -1,380 Descending Washington Center
08:48AM 38.6736 -77.3361 84° East 391 450 16,000 -1,380 Descending Washington Center
08:49AM 38.6794 -77.2006 87° East 380 437 14,500 -1,380 Descending Washington Center
08:50AM 38.6667 -77.0753 97° East 370 426 13,200 -1,320 Descending Washington Center
08:51AM 38.6408 -76.9578 106° East 353 406 12,000 -1,380 Descending Washington Center
08:52AM 38.6297 -76.8381 97° East 342 394 10,500 -1,380 Descending Washington Center
08:54AM 38.7500 -76.6333 53° Northeast 320 368 7,700 -1,380 Descending Potomac TRACON
08:55AM 38.8000 -76.5333 57° Northeast 317 365 6,200 -1,140 Descending Potomac TRACON
08:56AM 38.8667 -76.5167 11° North 283 326 5,600 -900 Descending Potomac TRACON
08:57AM 38.9500 -76.5000 North 274 315 4,500 -960 Descending Potomac TRACON
08:58AM 39.0000 -76.5167 345° North 206 237 3,700 -660 Descending Potomac TRACON
08:59AM 39.0500 -76.5500 333° Northwest 153 176 3,200 -720 Descending Potomac TRACON
09:00AM 39.0667 -76.5833 303° West 148 170 2,400 -840 Descending Potomac TRACON
09:01AM 39.1000 -76.6000 339° North 130 150 1,700 -720 Descending Potomac TRACON
09:02AM 39.1333 -76.6333 322° Northwest 116 133 1,000 -720 Descending Potomac TRACON
09:03AM 39.1500 -76.6500 322° Northwest 121 139 400 -720 Descending Potomac TRACON
09:05AM 39.1667 -76.6667 339° North  Level FlightAware Approximate
09:12AM 39.1754 -76.6683 339° North  Level Estimated